Terminal Aerodrome Forecast
Issued by NWS Brownsville, TX

Home | Current Version | Previous Version | Text Only | Print | Product List | Glossary On
Versions: 1 2 3 4 5 6 7 8 9 10 11 12 13 14 15 16 17 18 19 20 21 22 23 24 25 26 27 28 29
649
FTUS44 KBRO 271120
TAFHRL
TAF
KHRL 271120Z 2712/2812 17018KT P6SM BKN013
     FM271500 15018G24KT P6SM SCT025 BKN250
      TEMPO 2715/2718 BKN025
     FM280900 15010KT P6SM BKN050=

USA.gov is the U.S. government's official web portal to all federal, state and local government web resources and services.